createdAt,value
2022-11-29T00:01:40.538Z,23.10
2022-11-29T00:04:08.910Z,21.00
2022-11-29T00:06:36.932Z,20.80
2022-11-29T00:09:12.130Z,21.00
2022-11-29T00:12:01.416Z,21.20
2022-11-29T00:14:30.136Z,18.30
2022-11-29T00:17:04.317Z,17.90
2022-11-29T00:19:34.949Z,20.00
2022-11-29T00:22:03.534Z,24.00
2022-11-29T00:24:34.563Z,18.90
2022-11-29T00:27:02.764Z,20.50
2022-11-29T00:29:30.918Z,22.00
2022-11-29T00:31:59.605Z,20.90
2022-11-29T00:34:28.132Z,22.80
2022-11-29T00:36:55.924Z,23.90
2022-11-29T00:39:23.683Z,21.80
2022-11-29T00:41:51.453Z,22.00
2022-11-29T00:44:20.668Z,21.70
2022-11-29T00:46:49.362Z,22.50
2022-11-29T00:49:17.597Z,22.10
2022-11-29T00:51:46.031Z,21.00
2022-11-29T00:54:13.942Z,19.70
2022-11-29T00:56:41.676Z,20.70
2022-11-29T00:59:09.518Z,21.00
2022-11-29T01:01:37.269Z,20.60
2022-11-29T01:04:05.158Z,21.30
2022-11-29T01:06:32.967Z,19.20
2022-11-29T01:09:00.729Z,22.20
2022-11-29T01:11:28.595Z,20.70
2022-11-29T01:14:02.016Z,21.00
2022-11-29T01:16:31.920Z,21.60
2022-11-29T01:19:00.483Z,21.00
2022-11-29T01:21:28.802Z,21.10
2022-11-29T01:23:56.593Z,19.30
2022-11-29T01:26:28.463Z,20.50
2022-11-29T01:28:57.918Z,20.80
2022-11-29T01:31:32.865Z,20.20
2022-11-29T01:34:03.837Z,20.20
2022-11-29T01:36:32.088Z,19.50
2022-11-29T01:39:01.759Z,18.80
2022-11-29T01:41:33.840Z,19.10
2022-11-29T01:44:11.584Z,23.50
2022-11-29T01:46:47.334Z,25.10
2022-11-29T01:49:19.651Z,24.90
2022-11-29T01:51:53.097Z,21.10
2022-11-29T01:54:22.518Z,20.90
2022-11-29T01:56:52.733Z,21.30
2022-11-29T01:59:27.368Z,19.90
2022-11-29T02:02:06.639Z,22.60
2022-11-29T02:04:37.034Z,19.40
2022-11-29T02:07:05.190Z,16.20
2022-11-29T02:09:32.980Z,15.80
2022-11-29T02:12:40.238Z,21.10
2022-11-29T02:15:38.983Z,22.20
2022-11-29T02:18:12.298Z,23.20
2022-11-29T02:21:07.807Z,21.20
2022-11-29T02:24:14.582Z,20.10
2022-11-29T02:27:12.043Z,21.10
2022-11-29T02:30:08.635Z,19.20
2022-11-29T02:32:45.133Z,19.70
2022-11-29T02:35:38.221Z,18.90
2022-11-29T02:38:24.186Z,19.70
2022-11-29T02:41:12.821Z,22.40
2022-11-29T02:44:15.503Z,23.60
2022-11-29T02:47:15.037Z,22.00
2022-11-29T02:49:54.468Z,20.60
2022-11-29T02:52:52.767Z,19.90
2022-11-29T02:55:39.556Z,19.90
2022-11-29T02:58:09.940Z,20.40
2022-11-29T03:00:50.808Z,18.70
2022-11-29T03:03:24.932Z,20.20
2022-11-29T03:06:02.243Z,18.40
2022-11-29T03:09:06.205Z,19.40
2022-11-29T03:11:50.932Z,21.30
2022-11-29T03:14:33.208Z,19.90
2022-11-29T03:17:29.665Z,17.90
2022-11-29T03:20:42.556Z,18.80
2022-11-29T03:23:31.496Z,19.40
2022-11-29T03:26:14.159Z,20.10
2022-11-29T03:28:54.138Z,18.90
2022-11-29T03:31:36.078Z,18.20
2022-11-29T03:34:43.991Z,18.10
2022-11-29T03:37:28.290Z,19.80
2022-11-29T03:40:16.846Z,21.60
2022-11-29T03:43:06.333Z,19.60
2022-11-29T03:45:48.598Z,20.80
2022-11-29T03:48:31.318Z,19.10
2022-11-29T03:51:20.081Z,20.20
2022-11-29T03:54:00.224Z,19.50
2022-11-29T03:56:35.841Z,20.40
2022-11-29T03:59:21.881Z,20.10
2022-11-29T04:02:29.750Z,19.00
2022-11-29T04:05:31.389Z,18.30
2022-11-29T04:08:29.952Z,18.70
2022-11-29T04:11:55.027Z,22.00
2022-11-29T04:14:30.452Z,19.80
2022-11-29T04:17:15.942Z,18.60
2022-11-29T04:20:01.802Z,21.20
2022-11-29T04:23:22.896Z,18.40
2022-11-29T04:26:18.037Z,19.40
2022-11-29T04:29:00.688Z,20.60
2022-11-29T04:32:02.687Z,21.60
2022-11-29T04:34:58.946Z,21.30
2022-11-29T04:37:41.793Z,20.40
2022-11-29T04:40:26.502Z,21.10
2022-11-29T04:43:35.219Z,22.80
2022-11-29T04:46:11.778Z,19.90
2022-11-29T04:49:11.097Z,19.10
2022-11-29T04:52:03.250Z,20.70
2022-11-29T04:54:52.028Z,20.60
2022-11-29T04:57:43.204Z,21.50
2022-11-29T05:00:23.125Z,21.10
2022-11-29T05:03:06.902Z,22.60
2022-11-29T05:06:03.175Z,19.50
2022-11-29T05:08:58.871Z,21.20
2022-11-29T05:11:58.131Z,23.30
2022-11-29T05:14:39.709Z,21.00
2022-11-29T05:17:49.554Z,18.70
2022-11-29T05:20:49.845Z,19.60
2022-11-29T05:23:52.871Z,20.00
2022-11-29T05:26:31.306Z,21.20
2022-11-29T05:29:20.583Z,21.80
2022-11-29T05:32:28.807Z,20.70
2022-11-29T05:35:50.497Z,20.60
2022-11-29T05:39:09.654Z,20.60
2022-11-29T05:42:26.567Z,25.80
2022-11-29T05:45:07.995Z,23.50
2022-11-29T05:47:46.861Z,20.90
2022-11-29T05:50:27.130Z,20.70
2022-11-29T05:53:47.740Z,21.30
2022-11-29T05:56:39.459Z,21.10
2022-11-29T05:59:18.439Z,23.00
2022-11-29T06:02:09.981Z,22.00
2022-11-29T06:05:13.561Z,40.00
2022-11-29T06:08:21.617Z,29.90
2022-11-29T06:11:16.572Z,37.20
2022-11-29T06:13:59.448Z,45.40
2022-11-29T06:16:42.575Z,43.70
2022-11-29T06:19:55.213Z,36.70
2022-11-29T06:23:02.745Z,27.70
2022-11-29T06:26:04.724Z,25.50
2022-11-29T06:29:20.333Z,24.20
2022-11-29T06:31:56.254Z,23.60
2022-11-29T06:34:56.590Z,23.70
2022-11-29T06:37:36.520Z,20.30
2022-11-29T06:40:09.664Z,25.10
2022-11-29T06:42:37.385Z,31.70
2022-11-29T06:45:06.788Z,35.80
2022-11-29T06:48:03.743Z,34.50
2022-11-29T06:50:43.691Z,29.00
2022-11-29T06:53:40.477Z,26.10
2022-11-29T06:56:28.022Z,27.80
2022-11-29T06:59:17.218Z,31.90
2022-11-29T07:02:19.863Z,30.00
2022-11-29T07:05:15.577Z,29.80
2022-11-29T07:07:43.796Z,22.60
2022-11-29T07:10:19.358Z,27.60
2022-11-29T07:12:50.123Z,27.90
2022-11-29T07:15:22.731Z,32.30
2022-11-29T07:18:24.005Z,28.50
2022-11-29T07:21:08.757Z,24.70
2022-11-29T07:24:21.156Z,24.40
2022-11-29T07:27:44.615Z,22.50
2022-11-29T07:30:20.328Z,25.00
2022-11-29T07:33:27.438Z,17.30
2022-11-29T07:36:31.105Z,20.30
2022-11-29T07:39:34.224Z,26.50
2022-11-29T07:42:18.607Z,25.50
2022-11-29T07:45:17.568Z,23.60
2022-11-29T07:47:46.388Z,24.30
2022-11-29T07:50:14.454Z,21.40
2022-11-29T07:52:42.220Z,24.70
2022-11-29T07:55:21.110Z,22.90
2022-11-29T07:57:50.391Z,20.00
2022-11-29T08:00:19.873Z,21.90
2022-11-29T08:02:49.904Z,25.70
2022-11-29T08:05:18.429Z,27.90
2022-11-29T08:07:47.689Z,26.40
2022-11-29T08:10:17.599Z,23.10
2022-11-29T08:12:50.039Z,27.90
2022-11-29T08:15:20.592Z,25.80
2022-11-29T08:17:48.587Z,27.30
2022-11-29T08:20:17.284Z,26.80
2022-11-29T08:22:45.163Z,29.30
2022-11-29T08:25:12.777Z,32.30
2022-11-29T08:27:40.483Z,42.20
2022-11-29T08:30:08.881Z,39.60
2022-11-29T08:32:36.595Z,38.10
2022-11-29T08:35:04.604Z,32.20
2022-11-29T08:37:32.440Z,22.20
2022-11-29T08:40:00.145Z,32.30
2022-11-29T08:42:27.839Z,28.10
2022-11-29T08:44:55.648Z,30.40
2022-11-29T08:47:38.889Z,21.30
2022-11-29T08:50:14.257Z,19.80
2022-11-29T08:53:04.581Z,28.30
2022-11-29T08:55:36.843Z,30.50
2022-11-29T08:58:11.809Z,30.30
2022-11-29T09:00:42.526Z,29.00
2022-11-29T09:03:28.680Z,24.00
2022-11-29T09:05:57.542Z,24.50
2022-11-29T09:08:25.279Z,29.40
2022-11-29T09:10:53.385Z,29.20
2022-11-29T09:13:21.029Z,27.10
2022-11-29T09:15:48.774Z,34.10
2022-11-29T09:18:17.022Z,30.80
2022-11-29T09:20:45.147Z,30.10
2022-11-29T09:23:13.431Z,28.20
2022-11-29T09:25:41.318Z,27.70
2022-11-29T09:28:09.025Z,27.10
2022-11-29T09:30:38.096Z,20.50
2022-11-29T09:33:06.050Z,28.20
2022-11-29T09:35:34.991Z,24.10
2022-11-29T09:38:02.794Z,28.70
2022-11-29T09:40:54.578Z,28.10
2022-11-29T09:43:40.981Z,26.30
2022-11-29T09:47:00.553Z,26.80
2022-11-29T09:50:11.675Z,25.90
2022-11-29T09:53:08.647Z,27.80
2022-11-29T09:55:45.632Z,23.50
2022-11-29T09:58:21.494Z,28.60
2022-11-29T10:00:53.983Z,33.80
2022-11-29T10:03:33.767Z,31.80
2022-11-29T10:06:20.964Z,27.90
2022-11-29T10:09:14.771Z,27.50
2022-11-29T10:12:11.797Z,28.60
2022-11-29T10:14:54.177Z,20.10
2022-11-29T10:17:47.315Z,26.80
2022-11-29T10:20:23.067Z,24.90
2022-11-29T10:23:33.636Z,26.20
2022-11-29T10:26:01.923Z,26.70
2022-11-29T10:28:33.468Z,27.80
2022-11-29T10:31:26.907Z,25.10
2022-11-29T10:33:59.923Z,26.80
2022-11-29T10:36:40.676Z,30.00
2022-11-29T10:39:17.299Z,25.60
2022-11-29T10:41:45.090Z,25.10
2022-11-29T10:44:15.007Z,24.10
2022-11-29T10:46:43.064Z,26.40
2022-11-29T10:49:17.001Z,26.10
2022-11-29T10:51:46.665Z,27.30
2022-11-29T10:54:57.036Z,28.30
2022-11-29T10:57:25.739Z,23.50
2022-11-29T11:00:07.946Z,20.20
2022-11-29T11:02:37.267Z,16.30
2022-11-29T11:05:18.870Z,23.30
2022-11-29T11:07:57.677Z,23.70
2022-11-29T11:10:30.774Z,25.10
2022-11-29T11:13:20.543Z,26.80
2022-11-29T11:15:48.265Z,26.40
2022-11-29T11:18:24.146Z,26.30
2022-11-29T11:21:01.299Z,27.00
2022-11-29T11:23:32.979Z,29.00
2022-11-29T11:26:09.011Z,20.30
2022-11-29T11:28:52.587Z,24.20
2022-11-29T11:31:58.908Z,28.70
2022-11-29T11:34:35.945Z,29.00
2022-11-29T11:37:16.194Z,25.10
2022-11-29T11:39:47.196Z,26.50
2022-11-29T11:42:37.099Z,25.30
2022-11-29T11:45:10.853Z,26.30
2022-11-29T11:48:13.470Z,20.40
2022-11-29T11:50:50.054Z,21.90
2022-11-29T11:53:27.537Z,25.70
2022-11-29T11:56:01.265Z,26.20
2022-11-29T11:58:55.596Z,27.90
2022-11-29T12:01:30.836Z,28.70
2022-11-29T12:04:11.699Z,26.10
2022-11-29T12:06:57.272Z,29.90
2022-11-29T12:09:39.578Z,27.30
2022-11-29T12:12:15.431Z,28.90
2022-11-29T12:15:01.439Z,26.10
2022-11-29T12:17:41.564Z,24.80
2022-11-29T12:20:10.065Z,26.30
2022-11-29T12:22:50.990Z,31.30
2022-11-29T12:25:29.817Z,29.70
2022-11-29T12:27:57.732Z,31.70
2022-11-29T12:30:26.008Z,31.30
2022-11-29T12:33:31.594Z,27.60
2022-11-29T12:37:02.420Z,21.90
2022-11-29T12:39:42.303Z,22.70
2022-11-29T12:42:46.909Z,27.90
2022-11-29T12:45:45.184Z,26.70
2022-11-29T12:48:33.267Z,24.70
2022-11-29T12:51:24.528Z,22.40
2022-11-29T12:54:43.518Z,23.30
2022-11-29T12:57:26.985Z,24.80
2022-11-29T13:00:07.405Z,22.80
2022-11-29T13:03:06.655Z,24.90
2022-11-29T13:06:28.607Z,24.60
2022-11-29T13:09:29.402Z,25.70
2022-11-29T13:12:13.537Z,23.60
2022-11-29T13:14:57.429Z,24.20
2022-11-29T13:17:59.827Z,26.20
2022-11-29T13:20:42.785Z,23.80
2022-11-29T13:24:15.113Z,16.80
2022-11-29T13:26:37.596Z,21.00
2022-11-29T13:29:11.592Z,23.00
2022-11-29T13:31:40.365Z,21.80
2022-11-29T13:34:34.619Z,21.90
2022-11-29T13:37:38.160Z,20.70
2022-11-29T13:40:50.920Z,22.30
2022-11-29T13:43:52.990Z,21.20
2022-11-29T13:46:52.112Z,22.70
2022-11-29T13:49:57.473Z,21.30
2022-11-29T13:52:45.412Z,21.00
2022-11-29T13:55:14.531Z,23.20
2022-11-29T13:58:16.946Z,23.60
2022-11-29T14:00:46.102Z,22.20
2022-11-29T14:03:23.124Z,23.10
2022-11-29T14:06:09.996Z,22.10
2022-11-29T14:09:23.856Z,21.90
2022-11-29T14:11:56.280Z,22.70
2022-11-29T14:14:54.679Z,15.90
2022-11-29T14:17:56.526Z,20.30
2022-11-29T14:20:44.181Z,21.70
2022-11-29T14:23:32.462Z,21.60
2022-11-29T14:26:00.732Z,23.50
2022-11-29T14:28:35.353Z,24.40
2022-11-29T14:31:05.325Z,22.90
2022-11-29T14:34:12.464Z,24.40
2022-11-29T14:36:53.946Z,20.60
2022-11-29T14:39:58.938Z,23.80
2022-11-29T14:42:28.933Z,24.20
2022-11-29T14:45:04.690Z,24.40
2022-11-29T14:47:47.039Z,28.30
2022-11-29T14:50:41.911Z,29.70
2022-11-29T14:53:32.900Z,33.50
2022-11-29T14:56:28.568Z,32.70
2022-11-29T14:59:43.572Z,30.10
2022-11-29T15:02:24.592Z,29.60
2022-11-29T15:04:57.118Z,34.20
2022-11-29T15:07:31.930Z,25.40
2022-11-29T15:10:04.269Z,23.90
2022-11-29T15:12:37.096Z,22.40
2022-11-29T15:15:37.003Z,24.80
2022-11-29T15:18:35.904Z,21.60
2022-11-29T15:21:28.281Z,23.10
2022-11-29T15:24:11.077Z,22.40
2022-11-29T15:26:39.563Z,23.40
2022-11-29T15:29:15.831Z,26.10
2022-11-29T15:31:45.989Z,26.00
2022-11-29T15:34:28.077Z,23.60
2022-11-29T15:36:55.891Z,26.20
2022-11-29T15:39:31.733Z,27.70
2022-11-29T15:42:11.585Z,27.30
2022-11-29T15:44:47.786Z,27.30
2022-11-29T15:47:26.803Z,28.90
2022-11-29T15:49:54.687Z,23.50
2022-11-29T15:52:33.784Z,25.60
2022-11-29T15:55:06.667Z,25.30
2022-11-29T15:57:42.191Z,24.60
2022-11-29T16:00:20.451Z,23.90
2022-11-29T16:02:58.301Z,21.80
2022-11-29T16:05:38.926Z,20.20
2022-11-29T16:08:16.399Z,22.80
2022-11-29T16:10:50.486Z,23.10
2022-11-29T16:13:38.153Z,21.80
2022-11-29T16:16:14.294Z,22.60
2022-11-29T16:18:44.878Z,20.80
2022-11-29T16:21:27.982Z,24.60
2022-11-29T16:23:57.965Z,22.90
2022-11-29T16:26:35.795Z,22.70
2022-11-29T16:29:04.735Z,21.90
2022-11-29T16:31:37.054Z,23.80
2022-11-29T16:34:19.353Z,24.80
2022-11-29T16:36:47.400Z,20.90
2022-11-29T16:39:25.349Z,21.80
2022-11-29T16:42:24.658Z,25.10
2022-11-29T16:44:58.326Z,25.30
2022-11-29T16:47:30.398Z,26.20
2022-11-29T16:50:21.596Z,25.80
2022-11-29T16:52:56.101Z,24.90
2022-11-29T16:55:24.631Z,20.60
2022-11-29T16:57:52.580Z,19.90
2022-11-29T17:00:33.349Z,21.90
2022-11-29T17:03:01.066Z,23.00
2022-11-29T17:05:28.981Z,21.70
2022-11-29T17:07:56.945Z,25.00
2022-11-29T17:10:25.799Z,26.50
2022-11-29T17:12:53.689Z,25.60
2022-11-29T17:15:21.375Z,25.80
2022-11-29T17:17:49.186Z,24.30
2022-11-29T17:20:17.071Z,23.20
2022-11-29T17:22:44.804Z,21.80
2022-11-29T17:25:12.521Z,23.60
2022-11-29T17:27:40.648Z,28.30
2022-11-29T17:30:11.882Z,27.10
2022-11-29T17:32:39.645Z,28.20
2022-11-29T17:35:07.881Z,25.60
2022-11-29T17:37:35.607Z,27.70
2022-11-29T17:40:03.767Z,25.40
2022-11-29T17:42:31.386Z,30.10
2022-11-29T17:44:59.076Z,31.20
2022-11-29T17:47:26.781Z,31.50
2022-11-29T17:49:54.457Z,26.60
2022-11-29T17:52:22.053Z,24.50
2022-11-29T17:54:49.787Z,23.80
2022-11-29T17:57:18.355Z,24.00
2022-11-29T17:59:46.138Z,20.80
2022-11-29T18:02:14.129Z,23.00
2022-11-29T18:04:43.119Z,29.70
2022-11-29T18:07:13.002Z,25.10
2022-11-29T18:09:41.293Z,24.70
2022-11-29T18:12:09.064Z,30.30
2022-11-29T18:14:38.946Z,27.70
2022-11-29T18:17:07.514Z,36.30
2022-11-29T18:19:35.404Z,34.80
2022-11-29T18:22:03.242Z,33.30
2022-11-29T18:24:30.876Z,29.30
2022-11-29T18:26:58.575Z,27.10
2022-11-29T18:29:26.259Z,24.90
2022-11-29T18:31:54.170Z,23.40
2022-11-29T18:34:21.962Z,22.90
2022-11-29T18:36:49.714Z,22.90
2022-11-29T18:39:20.590Z,26.50
2022-11-29T18:41:50.203Z,20.00
2022-11-29T18:44:21.754Z,27.00
2022-11-29T18:46:50.000Z,23.40
2022-11-29T18:49:18.778Z,21.50
2022-11-29T18:51:48.975Z,24.60
2022-11-29T18:54:19.039Z,23.80
2022-11-29T18:56:46.928Z,21.00
2022-11-29T18:59:17.623Z,22.80
2022-11-29T19:01:48.268Z,26.00
2022-11-29T19:04:20.408Z,23.90
2022-11-29T19:06:49.343Z,16.10
2022-11-29T19:09:22.440Z,23.80
2022-11-29T19:11:51.118Z,31.00
2022-11-29T19:14:20.012Z,31.30
2022-11-29T19:16:50.030Z,36.00
2022-11-29T19:19:21.141Z,33.30
2022-11-29T19:21:49.193Z,29.90
2022-11-29T19:24:18.486Z,30.60
2022-11-29T19:26:47.618Z,24.40
2022-11-29T19:29:16.491Z,28.40
2022-11-29T19:31:44.456Z,26.00
2022-11-29T19:34:12.324Z,21.60
2022-11-29T19:36:45.200Z,28.80
2022-11-29T19:39:15.848Z,29.90
2022-11-29T19:41:47.033Z,25.10
2022-11-29T19:44:15.119Z,22.80
2022-11-29T19:46:48.675Z,25.80
2022-11-29T19:49:16.560Z,28.80
2022-11-29T19:51:44.854Z,15.60
2022-11-29T19:54:13.183Z,28.10
2022-11-29T19:56:41.152Z,24.90
2022-11-29T19:59:09.461Z,24.80
2022-11-29T20:01:42.788Z,26.20
2022-11-29T20:04:13.917Z,25.90
2022-11-29T20:06:44.379Z,31.70
2022-11-29T20:09:13.912Z,29.20
2022-11-29T20:11:41.679Z,22.00
2022-11-29T20:14:12.530Z,14.20
2022-11-29T20:16:41.863Z,28.10
2022-11-29T20:19:13.052Z,27.70
2022-11-29T20:21:44.842Z,27.60
2022-11-29T20:24:14.448Z,24.10
2022-11-29T20:26:47.149Z,24.30
2022-11-29T20:29:16.558Z,25.70
2022-11-29T20:31:50.247Z,27.50
2022-11-29T20:34:20.153Z,25.10
2022-11-29T20:37:09.205Z,29.90
2022-11-29T20:39:57.093Z,29.20
2022-11-29T20:42:57.880Z,26.90
2022-11-29T20:45:26.269Z,28.40
2022-11-29T20:48:03.949Z,28.60
2022-11-29T20:50:32.824Z,25.90
2022-11-29T20:53:25.109Z,25.40
2022-11-29T20:55:52.718Z,29.90
2022-11-29T20:58:20.418Z,21.20
2022-11-29T21:00:48.316Z,22.60
2022-11-29T21:03:18.732Z,27.20
2022-11-29T21:05:47.255Z,27.20
2022-11-29T21:08:17.713Z,19.80
2022-11-29T21:10:45.567Z,23.90
2022-11-29T21:13:14.235Z,24.20
2022-11-29T21:15:42.681Z,28.30
2022-11-29T21:18:22.148Z,19.70
2022-11-29T21:21:04.765Z,20.80
2022-11-29T21:24:17.049Z,23.40
2022-11-29T21:26:51.516Z,29.70
2022-11-29T21:29:22.656Z,28.00
2022-11-29T21:31:54.096Z,16.90
2022-11-29T21:34:22.428Z,23.40
2022-11-29T21:36:57.574Z,28.30
2022-11-29T21:39:34.806Z,23.90
2022-11-29T21:42:02.899Z,22.10
2022-11-29T21:44:30.637Z,25.80
2022-11-29T21:46:58.340Z,24.70
2022-11-29T21:49:26.108Z,28.10
2022-11-29T21:51:53.789Z,26.70
2022-11-29T21:54:21.474Z,30.20
2022-11-29T21:56:49.224Z,28.80
2022-11-29T21:59:17.162Z,28.90
2022-11-29T22:01:44.910Z,25.50
2022-11-29T22:04:12.711Z,28.30
2022-11-29T22:06:40.409Z,27.40
2022-11-29T22:09:08.116Z,17.90
2022-11-29T22:11:35.865Z,21.70
2022-11-29T22:14:19.227Z,28.80
2022-11-29T22:16:58.329Z,30.50
2022-11-29T22:19:36.127Z,30.00
2022-11-29T22:22:09.083Z,32.30
2022-11-29T22:24:38.246Z,25.80
2022-11-29T22:27:06.039Z,24.90
2022-11-29T22:29:33.751Z,25.50
2022-11-29T22:32:02.243Z,24.00
2022-11-29T22:34:29.891Z,23.80
2022-11-29T22:36:57.581Z,25.50
2022-11-29T22:39:25.615Z,25.90
2022-11-29T22:41:54.975Z,26.40
2022-11-29T22:44:24.485Z,27.00
2022-11-29T22:46:52.589Z,25.50
2022-11-29T22:49:20.497Z,22.80
2022-11-29T22:51:48.148Z,22.20
2022-11-29T22:54:16.506Z,20.30
2022-11-29T22:56:45.767Z,19.80
2022-11-29T22:59:13.846Z,20.70
2022-11-29T23:01:42.624Z,19.80
2022-11-29T23:04:12.535Z,20.50
2022-11-29T23:06:43.810Z,20.40
2022-11-29T23:09:21.257Z,15.50
2022-11-29T23:11:56.077Z,20.30
2022-11-29T23:14:24.682Z,12.90
2022-11-29T23:16:53.001Z,20.20
2022-11-29T23:19:20.908Z,18.50
2022-11-29T23:21:48.716Z,22.80
2022-11-29T23:24:16.591Z,21.60
2022-11-29T23:26:47.047Z,23.40
2022-11-29T23:29:19.854Z,21.00
2022-11-29T23:31:48.633Z,15.70
2022-11-29T23:34:16.839Z,20.50
2022-11-29T23:36:49.659Z,18.30
2022-11-29T23:39:20.637Z,10.40
2022-11-29T23:41:48.400Z,19.10
2022-11-29T23:44:16.102Z,19.30
2022-11-29T23:46:43.852Z,20.70
2022-11-29T23:49:11.574Z,20.70
2022-11-29T23:51:39.182Z,19.30
2022-11-29T23:54:06.977Z,17.40
2022-11-29T23:56:35.464Z,16.30
2022-11-29T23:59:03.843Z,17.60
